sensor_id;sensor_type;location;lat;lon;timestamp;pressure;altitude;pressure_sealevel;temperature;humidity
70229;BME280;57617;51.988;5.854;2022-10-31T00:01:20;101616.94;;;16.93;70.23
70229;BME280;57617;51.988;5.854;2022-10-31T00:03:46;101613.91;;;16.89;70.18
70229;BME280;57617;51.988;5.854;2022-10-31T00:06:11;101612.75;;;16.85;70.09
70229;BME280;57617;51.988;5.854;2022-10-31T00:08:36;101617.13;;;16.81;70.02
70229;BME280;57617;51.988;5.854;2022-10-31T00:11:01;101612.16;;;16.78;70.07
70229;BME280;57617;51.988;5.854;2022-10-31T00:13:27;101621.50;;;16.77;70.16
70229;BME280;57617;51.988;5.854;2022-10-31T00:15:52;101610.19;;;16.74;70.08
70229;BME280;57617;51.988;5.854;2022-10-31T00:18:17;101608.28;;;16.74;70.28
70229;BME280;57617;51.988;5.854;2022-10-31T00:20:43;101616.50;;;16.74;70.21
70229;BME280;57617;51.988;5.854;2022-10-31T00:23:09;101608.53;;;16.73;70.25
70229;BME280;57617;51.988;5.854;2022-10-31T00:25:37;101611.28;;;16.73;70.45
70229;BME280;57617;51.988;5.854;2022-10-31T00:28:05;101620.63;;;16.72;70.29
70229;BME280;57617;51.988;5.854;2022-10-31T00:30:30;101613.22;;;16.73;70.36
70229;BME280;57617;51.988;5.854;2022-10-31T00:32:56;101612.13;;;16.73;70.43
70229;BME280;57617;51.988;5.854;2022-10-31T00:35:21;101618.16;;;16.75;70.32
70229;BME280;57617;51.988;5.854;2022-10-31T00:37:46;101611.59;;;16.76;70.28
70229;BME280;57617;51.988;5.854;2022-10-31T00:40:12;101618.16;;;16.75;70.43
70229;BME280;57617;51.988;5.854;2022-10-31T00:42:39;101603.59;;;16.70;70.59
70229;BME280;57617;51.988;5.854;2022-10-31T00:45:04;101617.34;;;16.75;70.51
70229;BME280;57617;51.988;5.854;2022-10-31T00:47:30;101623.09;;;16.73;70.54
70229;BME280;57617;51.988;5.854;2022-10-31T00:49:55;101617.88;;;16.72;70.65
70229;BME280;57617;51.988;5.854;2022-10-31T00:52:20;101612.38;;;16.72;70.47
70229;BME280;57617;51.988;5.854;2022-10-31T00:54:46;101616.50;;;16.74;70.63
70229;BME280;57617;51.988;5.854;2022-10-31T00:57:11;101619.81;;;16.76;70.89
70229;BME280;57617;51.988;5.854;2022-10-31T00:59:36;101623.16;;;16.78;70.54
70229;BME280;57617;51.988;5.854;2022-10-31T01:02:01;101616.00;;;16.77;70.41
70229;BME280;57617;51.988;5.854;2022-10-31T01:04:27;101629.16;;;16.75;70.49
70229;BME280;57617;51.988;5.854;2022-10-31T01:06:52;101632.44;;;16.73;70.39
70229;BME280;57617;51.988;5.854;2022-10-31T01:09:17;101620.31;;;16.68;70.30
70229;BME280;57617;51.988;5.854;2022-10-31T01:11:43;101587.66;;;16.40;70.43
70229;BME280;57617;51.988;5.854;2022-10-31T01:14:08;101620.53;;;16.62;70.55
70229;BME280;57617;51.988;5.854;2022-10-31T01:16:34;101622.75;;;16.65;70.43
70229;BME280;57617;51.988;5.854;2022-10-31T01:18:59;101608.44;;;16.63;70.41
70229;BME280;57617;51.988;5.854;2022-10-31T01:21:27;101614.72;;;16.58;70.50
70229;BME280;57617;51.988;5.854;2022-10-31T01:23:54;101621.31;;;16.58;70.88
70229;BME280;57617;51.988;5.854;2022-10-31T01:26:25;101611.94;;;16.53;70.74
70229;BME280;57617;51.988;5.854;2022-10-31T01:28:53;101621.78;;;16.49;70.67
70229;BME280;57617;51.988;5.854;2022-10-31T01:31:21;101617.38;;;16.48;70.85
70229;BME280;57617;51.988;5.854;2022-10-31T01:33:47;101613.00;;;16.48;70.91
70229;BME280;57617;51.988;5.854;2022-10-31T01:36:20;101627.50;;;16.48;70.74
70229;BME280;57617;51.988;5.854;2022-10-31T01:38:46;101611.59;;;16.45;70.82
70229;BME280;57617;51.988;5.854;2022-10-31T01:41:14;101606.91;;;16.45;70.79
70229;BME280;57617;51.988;5.854;2022-10-31T01:46:12;101595.75;;;16.52;70.61
70229;BME280;57617;51.988;5.854;2022-10-31T01:48:39;101594.09;;;16.51;70.83
70229;BME280;57617;51.988;5.854;2022-10-31T01:51:05;101587.22;;;16.48;70.39
70229;BME280;57617;51.988;5.854;2022-10-31T01:53:31;101587.78;;;16.50;70.63
70229;BME280;57617;51.988;5.854;2022-10-31T01:55:57;101587.78;;;16.50;70.46
70229;BME280;57617;51.988;5.854;2022-10-31T01:58:25;101589.41;;;16.47;70.60
70229;BME280;57617;51.988;5.854;2022-10-31T02:00:57;101600.31;;;16.42;70.60
70229;BME280;57617;51.988;5.854;2022-10-31T02:03:25;101590.88;;;16.32;70.64
70229;BME280;57617;51.988;5.854;2022-10-31T02:05:53;101603.50;;;16.33;70.89
70229;BME280;57617;51.988;5.854;2022-10-31T02:08:33;101601.31;;;16.35;70.89
70229;BME280;57617;51.988;5.854;2022-10-31T02:11:00;101596.84;;;16.29;70.97
70229;BME280;57617;51.988;5.854;2022-10-31T02:13:27;101600.75;;;16.33;70.58
70229;BME280;57617;51.988;5.854;2022-10-31T02:15:56;101605.72;;;16.36;70.47
70229;BME280;57617;51.988;5.854;2022-10-31T02:18:23;101605.22;;;16.39;70.35
70229;BME280;57617;51.988;5.854;2022-10-31T02:21:13;101603.63;;;16.43;70.24
70229;BME280;57617;51.988;5.854;2022-10-31T02:24:00;101609.91;;;16.39;70.20
70229;BME280;57617;51.988;5.854;2022-10-31T02:27:02;101605.97;;;16.35;70.47
70229;BME280;57617;51.988;5.854;2022-10-31T02:32:56;101605.94;;;16.30;70.48
70229;BME280;57617;51.988;5.854;2022-10-31T02:40:51;101604.41;;;16.17;70.38
70229;BME280;57617;51.988;5.854;2022-10-31T02:43:27;101597.53;;;16.15;70.59
70229;BME280;57617;51.988;5.854;2022-10-31T02:46:03;101591.16;;;16.09;70.91
70229;BME280;57617;51.988;5.854;2022-10-31T02:48:31;101601.94;;;16.16;70.09
70229;BME280;57617;51.988;5.854;2022-10-31T02:51:02;101601.38;;;16.14;70.15
70229;BME280;57617;51.988;5.854;2022-10-31T02:53:33;101603.88;;;16.15;70.42
70229;BME280;57617;51.988;5.854;2022-10-31T02:56:02;101596.16;;;16.12;70.22
70229;BME280;57617;51.988;5.854;2022-10-31T02:58:32;101603.22;;;16.08;70.26
70229;BME280;57617;51.988;5.854;2022-10-31T03:12:12;101603.28;;;15.92;70.55
70229;BME280;57617;51.988;5.854;2022-10-31T03:18:00;101605.47;;;15.90;70.40
70229;BME280;57617;51.988;5.854;2022-10-31T03:20:41;101600.25;;;15.88;70.68
70229;BME280;57617;51.988;5.854;2022-10-31T03:23:11;101595.84;;;15.87;70.36
70229;BME280;57617;51.988;5.854;2022-10-31T03:25:39;101599.94;;;15.85;70.40
70229;BME280;57617;51.988;5.854;2022-10-31T03:28:06;101604.56;;;15.84;70.49
70229;BME280;57617;51.988;5.854;2022-10-31T03:30:35;101595.81;;;15.82;70.50
70229;BME280;57617;51.988;5.854;2022-10-31T03:33:03;101598.78;;;15.81;70.51
70229;BME280;57617;51.988;5.854;2022-10-31T03:35:30;101602.94;;;15.83;70.64
70229;BME280;57617;51.988;5.854;2022-10-31T03:37:59;101605.66;;;15.83;70.41
70229;BME280;57617;51.988;5.854;2022-10-31T03:40:27;101599.03;;;15.79;70.56
70229;BME280;57617;51.988;5.854;2022-10-31T03:43:05;101605.88;;;15.77;70.58
70229;BME280;57617;51.988;5.854;2022-10-31T03:45:33;101601.69;;;15.69;70.46
70229;BME280;57617;51.988;5.854;2022-10-31T03:48:01;101603.09;;;15.72;70.59
70229;BME280;57617;51.988;5.854;2022-10-31T03:50:31;101600.34;;;15.72;70.47
70229;BME280;57617;51.988;5.854;2022-10-31T03:53:05;101602.00;;;15.73;70.54
70229;BME280;57617;51.988;5.854;2022-10-31T03:55:50;101596.19;;;15.69;70.84
70229;BME280;57617;51.988;5.854;2022-10-31T03:58:48;101606.63;;;15.72;70.63
70229;BME280;57617;51.988;5.854;2022-10-31T04:01:19;101610.16;;;15.68;70.65
70229;BME280;57617;51.988;5.854;2022-10-31T04:03:46;101598.81;;;15.59;70.55
70229;BME280;57617;51.988;5.854;2022-10-31T04:06:13;101608.16;;;15.63;70.52
70229;BME280;57617;51.988;5.854;2022-10-31T04:08:45;101607.84;;;15.60;70.70
70229;BME280;57617;51.988;5.854;2022-10-31T04:11:13;101604.53;;;15.58;70.70
70229;BME280;57617;51.988;5.854;2022-10-31T04:13:43;101605.34;;;15.58;70.58
70229;BME280;57617;51.988;5.854;2022-10-31T04:16:10;101591.34;;;15.55;70.40
70229;BME280;57617;51.988;5.854;2022-10-31T04:18:35;101602.03;;;15.56;70.69
70229;BME280;57617;51.988;5.854;2022-10-31T04:21:05;101602.03;;;15.56;70.80
70229;BME280;57617;51.988;5.854;2022-10-31T04:23:32;101600.16;;;15.57;70.66
70229;BME280;57617;51.988;5.854;2022-10-31T04:25:57;101602.03;;;15.56;70.91
70229;BME280;57617;51.988;5.854;2022-10-31T04:28:23;101595.78;;;15.61;70.81
70229;BME280;57617;51.988;5.854;2022-10-31T04:30:49;101601.03;;;15.62;70.81
70229;BME280;57617;51.988;5.854;2022-10-31T04:33:14;101599.38;;;15.61;70.85
70229;BME280;57617;51.988;5.854;2022-10-31T04:35:40;101591.41;;;15.60;70.78
70229;BME280;57617;51.988;5.854;2022-10-31T04:38:05;101591.94;;;15.57;70.70
70229;BME280;57617;51.988;5.854;2022-10-31T04:40:31;101592.75;;;15.57;70.72
70229;BME280;57617;51.988;5.854;2022-10-31T04:42:56;101592.50;;;15.59;70.82
70229;BME280;57617;51.988;5.854;2022-10-31T04:45:21;101594.38;;;15.58;70.85
70229;BME280;57617;51.988;5.854;2022-10-31T04:47:46;101595.47;;;15.57;70.90
70229;BME280;57617;51.988;5.854;2022-10-31T04:50:12;101596.56;;;15.56;70.87
70229;BME280;57617;51.988;5.854;2022-10-31T04:52:41;101600.41;;;15.55;71.06
70229;BME280;57617;51.988;5.854;2022-10-31T04:55:07;101592.44;;;15.54;70.80
70229;BME280;57617;51.988;5.854;2022-10-31T04:57:40;101591.09;;;15.56;71.01
70229;BME280;57617;51.988;5.854;2022-10-31T05:00:06;101588.59;;;15.55;71.03
70229;BME280;57617;51.988;5.854;2022-10-31T05:02:31;101593.50;;;15.53;70.83
70229;BME280;57617;51.988;5.854;2022-10-31T05:04:56;101594.31;;;15.53;71.02
70229;BME280;57617;51.988;5.854;2022-10-31T05:07:22;101598.41;;;15.51;70.72
70229;BME280;57617;51.988;5.854;2022-10-31T05:09:47;101594.59;;;15.52;70.89
70229;BME280;57617;51.988;5.854;2022-10-31T05:12:12;101589.13;;;15.52;70.68
70229;BME280;57617;51.988;5.854;2022-10-31T05:14:37;101592.13;;;15.50;70.95
70229;BME280;57617;51.988;5.854;2022-10-31T05:17:03;101595.94;;;15.49;70.96
70229;BME280;57617;51.988;5.854;2022-10-31T05:19:28;101595.34;;;15.47;71.10
70229;BME280;57617;51.988;5.854;2022-10-31T05:21:53;101593.13;;;15.44;70.96
70229;BME280;57617;51.988;5.854;2022-10-31T05:24:19;101584.91;;;15.44;71.23
70229;BME280;57617;51.988;5.854;2022-10-31T05:26:47;101575.03;;;15.43;70.98
70229;BME280;57617;51.988;5.854;2022-10-31T05:29:12;101578.03;;;15.42;71.38
70229;BME280;57617;51.988;5.854;2022-10-31T05:31:37;101572.56;;;15.42;71.27
70229;BME280;57617;51.988;5.854;2022-10-31T05:34:03;101567.97;;;15.47;71.52
70229;BME280;57617;51.988;5.854;2022-10-31T05:36:28;101569.06;;;15.46;71.25
70229;BME280;57617;51.988;5.854;2022-10-31T05:38:53;101570.94;;;15.46;71.44
70229;BME280;57617;51.988;5.854;2022-10-31T05:41:18;101571.22;;;15.44;70.67
70229;BME280;57617;51.988;5.854;2022-10-31T05:43:45;101576.44;;;15.46;71.36
70229;BME280;57617;51.988;5.854;2022-10-31T05:46:10;101573.44;;;15.47;71.19
70229;BME280;57617;51.988;5.854;2022-10-31T05:48:35;101574.84;;;15.50;71.37
70229;BME280;57617;51.988;5.854;2022-10-31T05:51:00;101569.91;;;15.47;71.11
70229;BME280;57617;51.988;5.854;2022-10-31T05:53:26;101568.75;;;15.43;71.39
70229;BME280;57617;51.988;5.854;2022-10-31T05:55:51;101555.97;;;15.32;71.51
70229;BME280;57617;51.988;5.854;2022-10-31T05:58:16;101572.56;;;15.42;71.56
70229;BME280;57617;51.988;5.854;2022-10-31T06:00:42;101583.25;;;15.43;71.60
70229;BME280;57617;51.988;5.854;2022-10-31T06:03:08;101572.28;;;15.43;71.53
70229;BME280;57617;51.988;5.854;2022-10-31T06:05:34;101572.88;;;15.45;71.51
70229;BME280;57617;51.988;5.854;2022-10-31T06:07:59;101580.00;;;15.46;71.59
70229;BME280;57617;51.988;5.854;2022-10-31T06:10:25;101571.22;;;15.44;71.68
70229;BME280;57617;51.988;5.854;2022-10-31T06:12:51;101569.56;;;15.43;71.51
70229;BME280;57617;51.988;5.854;2022-10-31T06:15:17;101574.22;;;15.43;71.55
70229;BME280;57617;51.988;5.854;2022-10-31T06:17:42;101571.72;;;15.41;71.61
70229;BME280;57617;51.988;5.854;2022-10-31T06:20:08;101574.47;;;15.41;71.52
70229;BME280;57617;51.988;5.854;2022-10-31T06:22:33;101564.66;;;15.45;71.60
70229;BME280;57617;51.988;5.854;2022-10-31T06:24:59;101567.09;;;15.42;71.69
70229;BME280;57617;51.988;5.854;2022-10-31T06:27:24;101573.38;;;15.42;71.70
70229;BME280;57617;51.988;5.854;2022-10-31T06:29:50;101575.56;;;15.40;71.70
70229;BME280;57617;51.988;5.854;2022-10-31T06:32:16;101570.06;;;15.40;71.53
70229;BME280;57617;51.988;5.854;2022-10-31T06:34:42;101575.56;;;15.40;71.73
70229;BME280;57617;51.988;5.854;2022-10-31T06:37:09;101570.06;;;15.40;71.71
70229;BME280;57617;51.988;5.854;2022-10-31T06:39:35;101571.97;;;15.40;71.50
70229;BME280;57617;51.988;5.854;2022-10-31T06:42:01;101572.22;;;15.38;71.59
70229;BME280;57617;51.988;5.854;2022-10-31T06:44:26;101576.34;;;15.41;71.63
70229;BME280;57617;51.988;5.854;2022-10-31T06:46:51;101580.78;;;15.42;71.82
70229;BME280;57617;51.988;5.854;2022-10-31T06:49:17;101580.78;;;15.42;71.81
70229;BME280;57617;51.988;5.854;2022-10-31T06:51:42;101574.47;;;15.41;71.36
70229;BME280;57617;51.988;5.854;2022-10-31T06:54:07;101569.81;;;15.42;71.75
70229;BME280;57617;51.988;5.854;2022-10-31T06:56:33;101579.94;;;15.41;71.66
70229;BME280;57617;51.988;5.854;2022-10-31T06:58:58;101582.69;;;15.41;71.81
70229;BME280;57617;51.988;5.854;2022-10-31T07:01:23;101583.75;;;15.40;71.64
70229;BME280;57617;51.988;5.854;2022-10-31T07:03:48;101576.13;;;15.42;71.56
70229;BME280;57617;51.988;5.854;2022-10-31T07:06:14;101574.47;;;15.41;71.98
70229;BME280;57617;51.988;5.854;2022-10-31T07:08:39;101584.06;;;15.44;71.83
70229;BME280;57617;51.988;5.854;2022-10-31T07:11:04;101579.38;;;15.39;71.87
70229;BME280;57617;51.988;5.854;2022-10-31T07:13:30;101581.84;;;15.41;71.84
70229;BME280;57617;51.988;5.854;2022-10-31T07:16:01;101575.56;;;15.40;72.03
70229;BME280;57617;51.988;5.854;2022-10-31T07:18:27;101576.34;;;15.41;71.88
70229;BME280;57617;51.988;5.854;2022-10-31T07:20:53;101577.19;;;15.41;71.67
70229;BME280;57617;51.988;5.854;2022-10-31T07:23:18;101586.81;;;15.44;71.90
70229;BME280;57617;51.988;5.854;2022-10-31T07:25:44;101575.56;;;15.40;71.73
70229;BME280;57617;51.988;5.854;2022-10-31T07:28:09;101577.50;;;15.45;71.93
70229;BME280;57617;51.988;5.854;2022-10-31T07:30:35;101573.44;;;15.47;72.08
70229;BME280;57617;51.988;5.854;2022-10-31T07:33:00;101581.47;;;15.54;72.02
70229;BME280;57617;51.988;5.854;2022-10-31T07:35:27;101578.81;;;15.59;72.11
70229;BME280;57617;51.988;5.854;2022-10-31T07:37:54;101570.66;;;15.64;72.09
70229;BME280;57617;51.988;5.854;2022-10-31T07:40:20;101583.56;;;15.68;72.12
70229;BME280;57617;51.988;5.854;2022-10-31T07:42:47;101575.94;;;15.70;72.18
70229;BME280;57617;51.988;5.854;2022-10-31T07:45:16;101559.13;;;15.62;72.11
70229;BME280;57617;51.988;5.854;2022-10-31T07:47:43;101577.66;;;15.76;72.06
70229;BME280;57617;51.988;5.854;2022-10-31T07:50:11;101584.84;;;15.82;72.35
70229;BME280;57617;51.988;5.854;2022-10-31T07:52:37;101577.78;;;15.86;72.43
70229;BME280;57617;51.988;5.854;2022-10-31T07:55:03;101579.47;;;15.92;72.53
70229;BME280;57617;51.988;5.854;2022-10-31T07:57:29;101583.13;;;15.98;72.47
70229;BME280;57617;51.988;5.854;2022-10-31T07:59:54;101582.06;;;16.04;72.57
70229;BME280;57617;51.988;5.854;2022-10-31T08:02:20;101585.44;;;16.11;72.46
70229;BME280;57617;51.988;5.854;2022-10-31T08:04:45;101583.34;;;16.18;72.33
70229;BME280;57617;51.988;5.854;2022-10-31T08:07:10;101591.06;;;16.26;72.26
70229;BME280;57617;51.988;5.854;2022-10-31T08:09:35;101583.75;;;16.31;72.28
70229;BME280;57617;51.988;5.854;2022-10-31T08:12:01;101592.34;;;16.40;72.22
70229;BME280;57617;51.988;5.854;2022-10-31T08:14:27;101594.31;;;16.44;72.07
70229;BME280;57617;51.988;5.854;2022-10-31T08:16:53;101597.72;;;16.57;71.99
70229;BME280;57617;51.988;5.854;2022-10-31T08:19:18;101603.81;;;16.63;72.03
70229;BME280;57617;51.988;5.854;2022-10-31T08:21:43;101598.91;;;16.70;72.09
70229;BME280;57617;51.988;5.854;2022-10-31T08:24:08;101601.16;;;16.73;71.99
70229;BME280;57617;51.988;5.854;2022-10-31T08:26:34;101606.69;;;16.78;71.80
70229;BME280;57617;51.988;5.854;2022-10-31T08:28:59;101602.84;;;16.79;71.72
70229;BME280;57617;51.988;5.854;2022-10-31T08:31:26;101599.59;;;16.83;71.66
70229;BME280;57617;51.988;5.854;2022-10-31T08:33:52;101596.59;;;16.89;71.67
70229;BME280;57617;51.988;5.854;2022-10-31T08:36:18;101600.69;;;16.86;71.57
70229;BME280;57617;51.988;5.854;2022-10-31T08:38:43;101590.38;;;16.98;71.00
70229;BME280;57617;51.988;5.854;2022-10-31T08:41:09;101586.00;;;17.02;70.95
70229;BME280;57617;51.988;5.854;2022-10-31T08:43:34;101579.94;;;17.00;70.93
70229;BME280;57617;51.988;5.854;2022-10-31T08:45:59;101580.78;;;17.01;71.39
70229;BME280;57617;51.988;5.854;2022-10-31T08:48:25;101584.06;;;17.03;71.29
70229;BME280;57617;51.988;5.854;2022-10-31T08:50:50;101578.34;;;17.04;70.96
70229;BME280;57617;51.988;5.854;2022-10-31T08:53:18;101578.06;;;17.06;71.08
70229;BME280;57617;51.988;5.854;2022-10-31T08:55:45;101577.81;;;17.12;71.00
70229;BME280;57617;51.988;5.854;2022-10-31T08:58:13;101571.25;;;17.13;70.83
70229;BME280;57617;51.988;5.854;2022-10-31T09:00:39;101578.47;;;17.24;70.73
70229;BME280;57617;51.988;5.854;2022-10-31T09:03:06;101580.97;;;17.31;70.58
70229;BME280;57617;51.988;5.854;2022-10-31T09:05:33;101577.69;;;17.34;70.56
70229;BME280;57617;51.988;5.854;2022-10-31T09:07:59;101569.19;;;17.35;70.57
70229;BME280;57617;51.988;5.854;2022-10-31T09:10:25;101571.44;;;17.39;70.14
70229;BME280;57617;51.988;5.854;2022-10-31T09:12:58;101573.88;;;17.40;70.10
70229;BME280;57617;51.988;5.854;2022-10-31T09:15:25;101564.03;;;17.44;70.13
70229;BME280;57617;51.988;5.854;2022-10-31T09:17:51;101558.56;;;17.49;70.05
70229;BME280;57617;51.988;5.854;2022-10-31T09:20:17;101557.47;;;17.55;70.15
70229;BME280;57617;51.988;5.854;2022-10-31T09:22:42;101560.81;;;17.62;69.84
70229;BME280;57617;51.988;5.854;2022-10-31T09:25:08;101571.53;;;17.63;69.58
70229;BME280;57617;51.988;5.854;2022-10-31T09:27:33;101580.31;;;17.61;69.52
70229;BME280;57617;51.988;5.854;2022-10-31T09:29:58;101566.00;;;17.58;69.58
70229;BME280;57617;51.988;5.854;2022-10-31T09:32:23;101560.81;;;17.57;69.89
70229;BME280;57617;51.988;5.854;2022-10-31T09:34:49;101554.47;;;17.57;69.86
70229;BME280;57617;51.988;5.854;2022-10-31T09:37:14;101530.84;;;17.56;69.52
70229;BME280;57617;51.988;5.854;2022-10-31T09:39:39;101514.63;;;17.54;69.71
70229;BME280;57617;51.988;5.854;2022-10-31T09:42:17;101517.09;;;17.51;69.54
70229;BME280;57617;51.988;5.854;2022-10-31T09:45:24;101536.06;;;17.52;69.45
70229;BME280;57617;51.988;5.854;2022-10-31T09:51:12;101538.81;;;17.52;69.60
70229;BME280;57617;51.988;5.854;2022-10-31T09:53:43;101544.31;;;17.57;69.58
70229;BME280;57617;51.988;5.854;2022-10-31T09:56:16;101535.25;;;17.62;69.62
70229;BME280;57617;51.988;5.854;2022-10-31T09:58:45;101533.06;;;17.63;69.68
70229;BME280;57617;51.988;5.854;2022-10-31T10:01:23;101535.00;;;17.63;69.51
70229;BME280;57617;51.988;5.854;2022-10-31T10:03:56;101538.84;;;17.62;69.81
70229;BME280;57617;51.988;5.854;2022-10-31T10:06:27;101536.38;;;17.61;69.72
70229;BME280;57617;51.988;5.854;2022-10-31T10:08:55;101530.28;;;17.58;69.68
70229;BME280;57617;51.988;5.854;2022-10-31T10:16:38;101528.16;;;17.71;69.87
70229;BME280;57617;51.988;5.854;2022-10-31T10:27:03;101484.72;;;17.73;70.52
70229;BME280;57617;51.988;5.854;2022-10-31T10:29:58;101489.97;;;17.74;70.69
70229;BME280;57617;51.988;5.854;2022-10-31T10:32:28;101507.28;;;17.75;70.79
70229;BME280;57617;51.988;5.854;2022-10-31T10:34:59;101507.84;;;17.77;70.94
70229;BME280;57617;51.988;5.854;2022-10-31T10:37:31;101494.94;;;17.77;70.98
70229;BME280;57617;51.988;5.854;2022-10-31T10:40:16;101500.97;;;17.84;71.09
70229;BME280;57617;51.988;5.854;2022-10-31T10:45:55;101492.47;;;17.86;70.98
70229;BME280;57617;51.988;5.854;2022-10-31T10:51:37;101482.84;;;17.83;70.92
70229;BME280;57617;51.988;5.854;2022-10-31T10:54:36;101463.34;;;17.85;71.02
70229;BME280;57617;51.988;5.854;2022-10-31T10:57:13;101460.28;;;17.86;71.24
70229;BME280;57617;51.988;5.854;2022-10-31T10:59:43;101450.41;;;17.95;71.06
70229;BME280;57617;51.988;5.854;2022-10-31T11:02:23;101443.00;;;18.06;70.91
70229;BME280;57617;51.988;5.854;2022-10-31T11:04:54;101445.19;;;18.13;70.93
70229;BME280;57617;51.988;5.854;2022-10-31T11:07:20;101428.97;;;18.17;70.77
70229;BME280;57617;51.988;5.854;2022-10-31T11:09:45;101429.25;;;18.31;70.62
70229;BME280;57617;51.988;5.854;2022-10-31T11:12:24;101419.06;;;18.51;69.70
70229;BME280;57617;51.988;5.854;2022-10-31T11:15:00;101406.13;;;18.57;69.64
70229;BME280;57617;51.988;5.854;2022-10-31T11:17:34;101412.72;;;18.51;69.62
70229;BME280;57617;51.988;5.854;2022-10-31T11:20:20;101408.06;;;18.51;69.48
70229;BME280;57617;51.988;5.854;2022-10-31T11:22:48;101408.31;;;18.55;69.46
70229;BME280;57617;51.988;5.854;2022-10-31T11:27:45;101379.44;;;18.57;69.05
70229;BME280;57617;51.988;5.854;2022-10-31T11:30:12;101382.75;;;18.59;69.10
70229;BME280;57617;51.988;5.854;2022-10-31T11:32:44;101381.34;;;18.62;69.22
70229;BME280;57617;51.988;5.854;2022-10-31T11:35:15;101375.56;;;18.63;69.15
70229;BME280;57617;51.988;5.854;2022-10-31T11:37:44;101374.44;;;18.74;68.73
70229;BME280;57617;51.988;5.854;2022-10-31T11:40:19;101357.06;;;18.84;68.33
70229;BME280;57617;51.988;5.854;2022-10-31T11:42:46;101344.16;;;18.74;68.48
70229;BME280;57617;51.988;5.854;2022-10-31T11:47:50;101343.91;;;18.66;68.82
70229;BME280;57617;51.988;5.854;2022-10-31T11:50:21;101349.09;;;18.72;68.78
70229;BME280;57617;51.988;5.854;2022-10-31T11:52:47;101338.94;;;18.73;68.76
70229;BME280;57617;51.988;5.854;2022-10-31T11:55:30;101344.69;;;18.76;68.33
70229;BME280;57617;51.988;5.854;2022-10-31T11:57:56;101342.22;;;18.75;68.81
70229;BME280;57617;51.988;5.854;2022-10-31T12:00:30;101346.88;;;18.79;68.50
70229;BME280;57617;51.988;5.854;2022-10-31T12:05:41;101333.69;;;18.76;68.96
70229;BME280;57617;51.988;5.854;2022-10-31T12:08:09;101310.03;;;18.75;68.78
70229;BME280;57617;51.988;5.854;2022-10-31T12:10:58;101307.81;;;18.72;69.12
70229;BME280;57617;51.988;5.854;2022-10-31T12:13:37;101313.84;;;18.79;69.12
70229;BME280;57617;51.988;5.854;2022-10-31T12:16:28;101309.38;;;18.88;68.68
70229;BME280;57617;51.988;5.854;2022-10-31T12:19:09;101301.38;;;18.92;68.69
70229;BME280;57617;51.988;5.854;2022-10-31T12:22:05;101279.91;;;18.94;68.40
70229;BME280;57617;51.988;5.854;2022-10-31T12:38:50;101267.22;;;18.98;68.75
70229;BME280;57617;51.988;5.854;2022-10-31T12:44:52;101232.47;;;19.02;68.69
70229;BME280;57617;51.988;5.854;2022-10-31T12:47:32;101232.75;;;19.05;68.70
70229;BME280;57617;51.988;5.854;2022-10-31T12:50:11;101223.34;;;19.11;68.72
70229;BME280;57617;51.988;5.854;2022-10-31T12:52:56;101213.09;;;19.17;68.51
70229;BME280;57617;51.988;5.854;2022-10-31T12:58:01;101202.03;;;19.27;68.30
70229;BME280;57617;51.988;5.854;2022-10-31T13:00:31;101193.19;;;19.30;68.48
70229;BME280;57617;51.988;5.854;2022-10-31T13:03:23;101183.25;;;19.34;68.28
70229;BME280;57617;51.988;5.854;2022-10-31T13:06:04;101181.31;;;19.34;68.02
70229;BME280;57617;51.988;5.854;2022-10-31T13:08:39;101166.47;;;19.30;68.13
70229;BME280;57617;51.988;5.854;2022-10-31T13:11:42;101170.75;;;19.46;67.84
70229;BME280;57617;51.988;5.854;2022-10-31T13:14:14;101168.22;;;19.50;68.12
70229;BME280;57617;51.988;5.854;2022-10-31T13:16:45;101154.97;;;19.52;68.12
70229;BME280;57617;51.988;5.854;2022-10-31T13:22:03;101152.47;;;19.50;68.21
70229;BME280;57617;51.988;5.854;2022-10-31T13:27:26;101135.16;;;19.50;68.15
70229;BME280;57617;51.988;5.854;2022-10-31T13:30:04;101135.16;;;19.50;68.16
70229;BME280;57617;51.988;5.854;2022-10-31T13:32:41;101129.16;;;19.43;68.13
70229;BME280;57617;51.988;5.854;2022-10-31T13:35:15;101128.09;;;19.39;68.41
70229;BME280;57617;51.988;5.854;2022-10-31T13:37:46;101116.53;;;19.37;68.23
70229;BME280;57617;51.988;5.854;2022-10-31T13:40:45;101110.75;;;19.38;68.43
70229;BME280;57617;51.988;5.854;2022-10-31T13:46:44;101091.47;;;19.38;67.95
70229;BME280;57617;51.988;5.854;2022-10-31T13:51:53;101090.69;;;19.33;68.03
70229;BME280;57617;51.988;5.854;2022-10-31T13:54:34;101083.75;;;19.35;68.08
70229;BME280;57617;51.988;5.854;2022-10-31T13:56:59;101069.47;;;19.33;67.87
70229;BME280;57617;51.988;5.854;2022-10-31T13:59:36;101081.84;;;19.36;67.62
70229;BME280;57617;51.988;5.854;2022-10-31T14:02:14;101083.47;;;19.37;67.45
70229;BME280;57617;51.988;5.854;2022-10-31T14:04:52;101068.91;;;19.36;67.53
70229;BME280;57617;51.988;5.854;2022-10-31T14:07:21;101061.50;;;19.32;67.77
70229;BME280;57617;51.988;5.854;2022-10-31T14:09:55;101068.06;;;19.36;67.49
70229;BME280;57617;51.988;5.854;2022-10-31T14:14:56;101060.91;;;19.35;67.72
70229;BME280;57617;51.988;5.854;2022-10-31T14:17:27;101046.31;;;19.34;67.21
70229;BME280;57617;51.988;5.854;2022-10-31T14:22:54;101043.84;;;19.33;67.50
70229;BME280;57617;51.988;5.854;2022-10-31T14:25:34;101034.50;;;19.34;67.42
70229;BME280;57617;51.988;5.854;2022-10-31T14:28:03;101035.63;;;19.28;67.53
70229;BME280;57617;51.988;5.854;2022-10-31T14:30:51;101038.72;;;19.26;67.20
70229;BME280;57617;51.988;5.854;2022-10-31T14:33:19;101026.06;;;19.20;67.57
70229;BME280;57617;51.988;5.854;2022-10-31T14:39:02;101025.81;;;19.17;67.31